Terminal Aerodrome Forecast
Issued by NWS

Home | Current Version | Previous Version | Text Only | Print | Product List | Glossary On
Versions: 1 2 3 4 5 6 7 8 9
540
FTUS46 KSGX 231720
TAFTRM
TAF
KTRM 231720Z 2318/2418 14007KT P6SM SCT250
     FM232300 29012KT P6SM SCT250
     FM240200 33015G25KT P6SM SCT250
     FM240800 33010KT P6SM SCT250=

USA.gov is the U.S. government's official web portal to all federal, state and local government web resources and services.